Assembly, North Carolina
Current Conditions -  °F | °C
As of 9:54 AM on Wednesday 26 Nov 2014 (Local Time) from KAVL Reporting Station
Overcast Overcast  
Wind Chill:   Ceiling: 11000
Heat Index:   Visibility: 10mi
Dew Point:   Wind: 8mph
Humidity: 86%   Direction: 360°N
Pressure: 30.01"   Gusts: NA
Location:  35.5251°N, 82.9723°W
Report Text: KAVL 261454Z 36007KT 10SM SCT007 OVC110 05/03 A3001 RMK AO2 RAE00 SLP159 P0000 60007 T00500028 51012
Loading
Personal Weather Stations






























Interactive Weather Map New forecast layout! Learn more

10-Day Weather Forecast

Advertisements
Track Severe Weather on mobile